createdAt,value
2023-03-24T00:02:00.674Z,12.80
2023-03-24T00:04:30.566Z,12.80
2023-03-24T00:07:04.414Z,12.70
2023-03-24T00:09:34.282Z,12.70
2023-03-24T00:12:04.124Z,12.60
2023-03-24T00:14:33.979Z,12.60
2023-03-24T00:17:03.874Z,12.70
2023-03-24T00:19:34.003Z,12.60
2023-03-24T00:22:06.729Z,12.60
2023-03-24T00:24:38.248Z,12.60
2023-03-24T00:27:08.069Z,12.50
2023-03-24T00:29:38.380Z,12.50
2023-03-24T00:32:11.815Z,12.50
2023-03-24T00:34:43.487Z,12.60
2023-03-24T00:37:15.895Z,12.60
2023-03-24T00:39:46.071Z,12.60
2023-03-24T00:42:16.665Z,12.70
2023-03-24T00:44:47.679Z,12.60
2023-03-24T00:47:18.064Z,12.50
2023-03-24T00:49:48.354Z,12.50
2023-03-24T00:52:23.418Z,12.50
2023-03-24T00:54:55.389Z,12.40
2023-03-24T00:57:27.259Z,12.40
2023-03-24T00:59:57.915Z,12.30
2023-03-24T01:02:31.732Z,12.10
2023-03-24T01:05:03.271Z,11.90
2023-03-24T01:07:36.384Z,11.70
2023-03-24T01:10:06.734Z,11.80
2023-03-24T01:12:39.047Z,11.80
2023-03-24T01:15:11.983Z,11.80
2023-03-24T01:17:42.044Z,11.60
2023-03-24T01:20:14.093Z,11.60
2023-03-24T01:22:47.485Z,11.50
2023-03-24T01:25:19.236Z,11.40
2023-03-24T01:27:51.353Z,11.40
2023-03-24T01:30:23.582Z,11.30
2023-03-24T01:32:54.687Z,11.20
2023-03-24T01:35:28.523Z,11.20
2023-03-24T01:38:02.283Z,11.20
2023-03-24T01:40:34.992Z,11.10
2023-03-24T01:43:05.566Z,11.20
2023-03-24T01:46:03.310Z,11.00
2023-03-24T01:48:39.662Z,11.10
2023-03-24T01:51:12.902Z,11.20
2023-03-24T01:53:49.442Z,11.30
2023-03-24T01:56:19.743Z,11.40
2023-03-24T01:58:54.553Z,11.40
2023-03-24T02:01:32.408Z,11.30
2023-03-24T02:04:21.659Z,11.30
2023-03-24T02:06:51.824Z,11.20
2023-03-24T02:09:24.249Z,11.20
2023-03-24T02:11:54.155Z,11.30
2023-03-24T02:14:24.509Z,11.50
2023-03-24T02:17:16.497Z,11.60
2023-03-24T02:20:15.205Z,11.80
2023-03-24T02:23:14.692Z,12.00
2023-03-24T02:26:03.545Z,12.10
2023-03-24T02:28:43.459Z,12.20
2023-03-24T02:31:43.900Z,12.30
2023-03-24T02:34:44.530Z,12.40
2023-03-24T02:37:45.632Z,12.40
2023-03-24T02:40:41.761Z,12.50
2023-03-24T02:43:22.948Z,12.40
2023-03-24T02:46:07.954Z,12.60
2023-03-24T02:48:44.385Z,12.70
2023-03-24T02:51:20.158Z,12.80
2023-03-24T02:54:00.101Z,13.00
2023-03-24T02:56:39.290Z,13.10
2023-03-24T02:59:28.861Z,13.10
2023-03-24T03:02:06.657Z,13.10
2023-03-24T03:04:50.705Z,13.10
2023-03-24T03:07:25.222Z,13.10
2023-03-24T03:09:59.832Z,12.90
2023-03-24T03:12:37.248Z,12.90
2023-03-24T03:15:11.576Z,12.90
2023-03-24T03:17:48.510Z,12.70
2023-03-24T03:20:24.563Z,12.70
2023-03-24T03:22:59.407Z,12.90
2023-03-24T03:25:33.377Z,13.00
2023-03-24T03:28:09.169Z,13.00
2023-03-24T03:30:44.128Z,13.00
2023-03-24T03:33:25.009Z,13.10
2023-03-24T03:36:01.306Z,13.10
2023-03-24T03:38:40.496Z,13.10
2023-03-24T03:41:10.548Z,13.20
2023-03-24T03:43:43.785Z,13.20
2023-03-24T03:46:15.863Z,13.10
2023-03-24T03:48:47.890Z,13.10
2023-03-24T03:51:19.086Z,13.00
2023-03-24T03:53:58.395Z,13.00
2023-03-24T03:56:32.062Z,13.10
2023-03-24T03:59:34.122Z,13.00
2023-03-24T04:02:19.837Z,13.00
2023-03-24T04:05:14.331Z,13.00
2023-03-24T04:08:07.601Z,12.90
2023-03-24T04:11:20.547Z,12.90
2023-03-24T04:14:32.452Z,12.90
2023-03-24T04:17:41.314Z,13.00
2023-03-24T04:20:18.979Z,12.90
2023-03-24T04:23:05.320Z,12.80
2023-03-24T04:25:45.356Z,12.90
2023-03-24T04:28:26.701Z,13.00
2023-03-24T04:31:04.635Z,13.10
2023-03-24T04:33:45.766Z,13.10
2023-03-24T04:36:22.684Z,13.20
2023-03-24T04:39:15.019Z,13.00
2023-03-24T04:41:50.779Z,13.10
2023-03-24T04:44:28.988Z,13.10
2023-03-24T04:47:17.344Z,12.90
2023-03-24T04:50:11.615Z,12.90
2023-03-24T04:52:42.576Z,13.10
2023-03-24T04:55:36.004Z,13.10
2023-03-24T04:58:06.223Z,13.10
2023-03-24T05:00:37.277Z,13.10
2023-03-24T05:03:08.614Z,13.10
2023-03-24T05:05:41.186Z,13.10
2023-03-24T05:08:11.884Z,13.10
2023-03-24T05:10:42.667Z,13.20
2023-03-24T05:13:12.649Z,13.30
2023-03-24T05:15:48.824Z,13.40
2023-03-24T05:18:51.015Z,13.50
2023-03-24T05:21:23.762Z,13.60
2023-03-24T05:23:53.629Z,13.50
2023-03-24T05:26:23.531Z,13.60
2023-03-24T05:29:29.553Z,13.40
2023-03-24T05:32:00.574Z,13.50
2023-03-24T05:34:30.640Z,13.60
2023-03-24T05:37:17.853Z,13.80
2023-03-24T05:39:53.656Z,13.70
2023-03-24T05:42:44.130Z,13.60
2023-03-24T05:45:16.052Z,13.30
2023-03-24T05:47:46.227Z,13.10
2023-03-24T05:50:16.252Z,12.90
2023-03-24T05:52:50.158Z,12.80
2023-03-24T05:55:42.048Z,12.70
2023-03-24T05:58:34.997Z,12.50
2023-03-24T06:01:10.452Z,12.40
2023-03-24T06:03:41.993Z,12.40
2023-03-24T06:06:17.024Z,12.30
2023-03-24T06:08:50.477Z,12.20
2023-03-24T06:11:20.530Z,12.10
2023-03-24T06:14:01.348Z,12.10
2023-03-24T06:16:35.958Z,12.20
2023-03-24T06:19:07.520Z,12.20
2023-03-24T06:21:52.940Z,12.20
2023-03-24T06:24:30.293Z,12.20
2023-03-24T06:27:08.968Z,12.20
2023-03-24T06:29:42.494Z,12.20
2023-03-24T06:32:13.654Z,12.20
2023-03-24T06:34:45.521Z,12.20
2023-03-24T06:37:20.631Z,12.20
2023-03-24T06:39:53.391Z,12.10
2023-03-24T06:42:27.367Z,12.10
2023-03-24T06:44:58.841Z,12.10
2023-03-24T06:47:30.016Z,12.10
2023-03-24T06:50:00.009Z,12.10
2023-03-24T06:52:30.702Z,12.10
2023-03-24T06:55:03.308Z,12.10
2023-03-24T06:57:34.134Z,12.20
2023-03-24T07:00:23.556Z,12.20
2023-03-24T07:03:03.972Z,12.30
2023-03-24T07:05:35.546Z,12.30
2023-03-24T07:08:34.092Z,12.40
2023-03-24T07:11:04.105Z,12.50
2023-03-24T07:13:34.268Z,12.60
2023-03-24T07:16:08.221Z,12.80
2023-03-24T07:18:40.716Z,12.80
2023-03-24T07:21:11.095Z,12.70
2023-03-24T07:23:41.112Z,12.70
2023-03-24T07:26:22.087Z,12.80
2023-03-24T07:28:52.222Z,12.80
2023-03-24T07:31:42.434Z,12.70
2023-03-24T07:34:15.109Z,12.70
2023-03-24T07:36:45.159Z,12.60
2023-03-24T07:39:18.616Z,12.50
2023-03-24T07:41:51.225Z,12.50
2023-03-24T07:44:36.394Z,12.40
2023-03-24T07:47:06.354Z,12.40
2023-03-24T07:49:36.507Z,12.30
2023-03-24T07:52:10.037Z,12.30
2023-03-24T07:54:43.170Z,12.40
2023-03-24T07:57:20.523Z,12.40
2023-03-24T07:59:50.572Z,12.40
2023-03-24T08:02:45.699Z,12.30
2023-03-24T08:05:48.865Z,12.30
2023-03-24T08:08:33.034Z,12.40
2023-03-24T08:11:02.974Z,12.40
2023-03-24T08:13:35.881Z,12.50
2023-03-24T08:16:05.944Z,12.50
2023-03-24T08:18:36.368Z,12.50
2023-03-24T08:21:06.520Z,12.60
2023-03-24T08:23:37.107Z,12.70
2023-03-24T08:26:07.343Z,12.70
2023-03-24T08:28:40.183Z,12.70
2023-03-24T08:31:10.340Z,12.90
2023-03-24T08:33:40.681Z,13.00
2023-03-24T08:36:11.174Z,13.10
2023-03-24T08:38:41.979Z,13.20
2023-03-24T08:41:11.886Z,13.30
2023-03-24T08:43:44.697Z,13.40
2023-03-24T08:46:15.554Z,13.30
2023-03-24T08:48:45.525Z,13.30
2023-03-24T08:51:15.898Z,13.20
2023-03-24T08:53:46.326Z,13.20
2023-03-24T08:56:16.269Z,13.20
2023-03-24T08:58:51.362Z,13.20
2023-03-24T09:01:21.521Z,13.30
2023-03-24T09:03:52.146Z,13.30
2023-03-24T09:06:22.151Z,13.40
2023-03-24T09:08:52.143Z,13.40
2023-03-24T09:11:24.673Z,13.40
2023-03-24T09:13:57.219Z,13.50
2023-03-24T09:16:27.450Z,13.70
2023-03-24T09:18:57.380Z,13.90
2023-03-24T09:21:27.371Z,14.00
2023-03-24T09:23:57.288Z,14.20
2023-03-24T09:26:27.195Z,14.30
2023-03-24T09:28:59.835Z,14.50
2023-03-24T09:31:29.779Z,14.80
2023-03-24T09:34:03.837Z,15.20
2023-03-24T09:36:34.217Z,15.40
2023-03-24T09:39:04.150Z,15.50
2023-03-24T09:41:35.018Z,15.40
2023-03-24T09:44:19.085Z,15.50
2023-03-24T09:46:53.594Z,15.60
2023-03-24T09:49:27.185Z,15.90
2023-03-24T09:52:01.895Z,16.50
2023-03-24T09:54:42.875Z,17.00
2023-03-24T09:57:20.535Z,17.00
2023-03-24T09:59:53.080Z,17.40
2023-03-24T10:02:25.071Z,17.80
2023-03-24T10:04:55.265Z,17.70
2023-03-24T10:07:31.071Z,18.10
2023-03-24T10:10:03.750Z,18.30
2023-03-24T10:12:38.967Z,19.20
2023-03-24T10:15:30.834Z,20.00
2023-03-24T10:18:22.669Z,20.40
2023-03-24T10:20:57.508Z,19.70
2023-03-24T10:23:35.900Z,19.20
2023-03-24T10:26:12.257Z,19.00
2023-03-24T10:28:47.652Z,18.80
2023-03-24T10:31:29.402Z,18.30
2023-03-24T10:33:59.908Z,18.60
2023-03-24T10:36:31.179Z,19.00
2023-03-24T10:39:09.558Z,19.50
2023-03-24T10:41:48.628Z,19.50
2023-03-24T10:44:18.768Z,19.60
2023-03-24T10:46:55.129Z,19.60
2023-03-24T10:49:26.811Z,19.20
2023-03-24T10:52:04.100Z,18.80
2023-03-24T10:54:34.801Z,18.60
2023-03-24T10:57:06.768Z,18.40
2023-03-24T10:59:40.073Z,18.30
2023-03-24T11:02:21.541Z,18.00
2023-03-24T11:04:58.092Z,17.80
2023-03-24T11:07:33.405Z,17.70
2023-03-24T11:10:08.470Z,17.90
2023-03-24T11:12:41.172Z,17.70
2023-03-24T11:15:22.420Z,17.90
2023-03-24T11:18:01.722Z,18.00
2023-03-24T11:20:35.661Z,18.20
2023-03-24T11:23:09.172Z,18.50
2023-03-24T11:25:41.745Z,19.20
2023-03-24T11:28:17.553Z,19.30
2023-03-24T11:30:50.437Z,19.30
2023-03-24T11:33:34.427Z,19.40
2023-03-24T11:36:12.030Z,19.10
2023-03-24T11:38:42.784Z,19.10
2023-03-24T11:41:24.476Z,19.10
2023-03-24T11:44:10.814Z,19.60
2023-03-24T11:46:45.071Z,20.10
2023-03-24T11:49:22.498Z,20.30
2023-03-24T11:51:56.419Z,19.90
2023-03-24T11:54:32.477Z,19.30
2023-03-24T11:57:08.174Z,19.40
2023-03-24T11:59:44.757Z,19.30
2023-03-24T12:02:22.864Z,19.10
2023-03-24T12:05:21.213Z,18.50
2023-03-24T12:08:07.220Z,18.20
2023-03-24T12:10:48.556Z,18.00
2023-03-24T12:13:32.128Z,18.20
2023-03-24T12:16:16.232Z,18.20
2023-03-24T12:19:13.380Z,18.50
2023-03-24T12:21:56.457Z,18.50
2023-03-24T12:24:38.769Z,18.00
2023-03-24T12:27:16.609Z,18.00
2023-03-24T12:30:01.101Z,18.10
2023-03-24T12:32:43.768Z,18.10
2023-03-24T12:35:56.879Z,17.90
2023-03-24T12:38:51.701Z,17.90
2023-03-24T12:41:41.126Z,17.90
2023-03-24T12:44:35.972Z,17.90
2023-03-24T12:47:20.944Z,17.80
2023-03-24T12:50:08.023Z,17.30
2023-03-24T12:53:06.669Z,17.00
2023-03-24T12:55:46.318Z,16.90
2023-03-24T12:58:22.909Z,16.90
2023-03-24T13:01:03.456Z,16.90
2023-03-24T13:03:42.843Z,16.80
2023-03-24T13:06:21.628Z,17.00
2023-03-24T13:09:11.391Z,17.20
2023-03-24T13:11:50.573Z,17.20
2023-03-24T13:14:26.540Z,17.30
2023-03-24T13:17:03.717Z,17.50
2023-03-24T13:19:35.962Z,17.40
2023-03-24T13:22:09.709Z,17.30
2023-03-24T13:24:40.347Z,17.20
2023-03-24T13:27:20.043Z,17.00
2023-03-24T13:30:05.760Z,17.00
2023-03-24T13:32:39.871Z,17.00
2023-03-24T13:35:19.886Z,16.90
2023-03-24T13:37:54.164Z,16.90
2023-03-24T13:40:26.797Z,16.70
2023-03-24T13:43:02.146Z,16.50
2023-03-24T13:45:42.637Z,16.30
2023-03-24T13:48:28.386Z,16.00
2023-03-24T13:51:01.621Z,15.80
2023-03-24T13:53:38.191Z,15.70
2023-03-24T13:56:11.212Z,15.60
2023-03-24T13:59:10.432Z,15.40
2023-03-24T14:01:42.382Z,15.40
2023-03-24T14:04:46.726Z,15.40
2023-03-24T14:07:33.270Z,15.20
2023-03-24T14:10:04.635Z,15.10
2023-03-24T14:12:36.625Z,15.20
2023-03-24T14:15:18.259Z,15.20
2023-03-24T14:17:50.779Z,15.30
2023-03-24T14:20:36.234Z,15.20
2023-03-24T14:23:07.237Z,15.30
2023-03-24T14:25:37.458Z,15.30
2023-03-24T14:28:28.355Z,15.40
2023-03-24T14:31:10.315Z,15.60
2023-03-24T14:33:41.118Z,15.60
2023-03-24T14:36:14.901Z,15.60
2023-03-24T14:38:47.414Z,15.70
2023-03-24T14:41:23.519Z,15.90
2023-03-24T14:43:59.510Z,15.80
2023-03-24T14:46:41.065Z,15.70
2023-03-24T14:49:26.821Z,15.70
2023-03-24T14:52:12.097Z,15.70
2023-03-24T14:54:46.322Z,15.70
2023-03-24T14:57:22.582Z,15.80
2023-03-24T14:59:58.804Z,15.80
2023-03-24T15:02:37.782Z,15.80
2023-03-24T15:05:34.637Z,15.70
2023-03-24T15:08:08.854Z,15.70
2023-03-24T15:10:42.675Z,15.40
2023-03-24T15:13:37.543Z,15.20
2023-03-24T15:16:10.635Z,15.10
2023-03-24T15:18:58.144Z,14.90
2023-03-24T15:21:35.507Z,14.60
2023-03-24T15:24:23.651Z,14.30
2023-03-24T15:26:56.822Z,14.30
2023-03-24T15:29:26.780Z,14.20
2023-03-24T15:31:56.827Z,14.30
2023-03-24T15:34:34.087Z,14.20
2023-03-24T15:37:08.053Z,14.10
2023-03-24T15:39:39.963Z,14.10
2023-03-24T15:42:11.952Z,14.10
2023-03-24T15:44:43.939Z,14.10
2023-03-24T15:47:19.397Z,13.80
2023-03-24T15:49:53.925Z,13.20
2023-03-24T15:52:31.184Z,12.90
2023-03-24T15:55:07.347Z,12.60
2023-03-24T15:57:43.678Z,12.30
2023-03-24T16:00:19.452Z,11.90
2023-03-24T16:02:52.575Z,11.60
2023-03-24T16:05:27.595Z,11.40
2023-03-24T16:07:59.309Z,11.30
2023-03-24T16:10:39.811Z,11.20
2023-03-24T16:13:17.682Z,11.00
2023-03-24T16:15:49.745Z,10.90
2023-03-24T16:18:24.136Z,10.90
2023-03-24T16:20:56.589Z,11.10
2023-03-24T16:23:26.892Z,11.10
2023-03-24T16:25:56.829Z,11.10
2023-03-24T16:28:27.818Z,11.20
2023-03-24T16:31:02.643Z,11.30
2023-03-24T16:33:33.164Z,11.40
